createdAt,value
2018-06-18T00:00:09.885Z,16.41
2018-06-18T00:01:09.841Z,16.33
2018-06-18T00:02:09.798Z,16.39
2018-06-18T00:03:09.747Z,16.35
2018-06-18T00:04:09.743Z,16.32
2018-06-18T00:05:09.656Z,16.29
2018-06-18T00:06:09.614Z,16.32
2018-06-18T00:07:09.573Z,16.31
2018-06-18T00:08:09.530Z,16.28
2018-06-18T00:09:09.517Z,16.32
2018-06-18T00:10:09.432Z,16.29
2018-06-18T00:11:09.390Z,16.16
2018-06-18T00:12:09.340Z,16.20
2018-06-18T00:13:09.295Z,16.20
2018-06-18T00:14:09.297Z,16.20
2018-06-18T00:15:09.206Z,16.16
2018-06-18T00:16:09.159Z,16.23
2018-06-18T00:17:09.117Z,16.28
2018-06-18T00:18:09.066Z,16.26
2018-06-18T00:19:09.054Z,16.20
2018-06-18T00:20:09.009Z,16.17
2018-06-18T00:21:08.929Z,16.15
2018-06-18T00:22:08.886Z,16.05
2018-06-18T00:23:08.873Z,16.13
2018-06-18T00:24:08.827Z,16.04
2018-06-18T00:25:08.753Z,16.04
2018-06-18T00:26:08.746Z,16.04
2018-06-18T00:27:08.658Z,15.97
2018-06-18T00:28:08.612Z,15.90
2018-06-18T00:29:08.610Z,15.95
2018-06-18T00:30:08.538Z,15.86
2018-06-18T00:31:08.478Z,15.84
2018-06-18T00:32:08.436Z,15.83
2018-06-18T00:33:08.392Z,15.82
2018-06-18T00:34:08.398Z,15.80
2018-06-18T00:35:08.294Z,15.75
2018-06-18T00:36:08.251Z,15.67
2018-06-18T00:37:08.207Z,15.68
2018-06-18T00:38:08.167Z,15.59
2018-06-18T00:39:08.147Z,15.59
2018-06-18T00:40:08.067Z,15.61
2018-06-18T00:41:08.023Z,15.67
2018-06-18T00:42:07.976Z,15.62
2018-06-18T00:43:07.962Z,15.55
2018-06-18T00:44:07.885Z,15.46
2018-06-18T00:45:07.884Z,15.52
2018-06-18T00:46:07.791Z,15.52
2018-06-18T00:47:07.745Z,15.47
2018-06-18T00:48:07.702Z,15.54
2018-06-18T00:49:07.655Z,15.52
2018-06-18T00:50:07.642Z,15.49
2018-06-18T00:51:07.596Z,15.42
2018-06-18T00:52:07.519Z,15.43
2018-06-18T00:53:07.472Z,15.39
2018-06-18T00:54:07.433Z,15.31
2018-06-18T00:55:07.413Z,15.29
2018-06-18T00:56:07.337Z,15.22
2018-06-18T00:57:07.319Z,15.27
2018-06-18T00:58:07.245Z,15.07
2018-06-18T00:59:07.196Z,15.17
2018-06-18T01:00:07.151Z,15.15
2018-06-18T01:01:07.106Z,15.07
2018-06-18T01:02:07.090Z,15.15
2018-06-18T01:03:07.012Z,15.07
2018-06-18T01:04:06.999Z,15.03
2018-06-18T01:05:06.925Z,15.06
2018-06-18T01:06:06.881Z,15.07
2018-06-18T01:07:06.829Z,15.03
2018-06-18T01:08:06.782Z,15.02
2018-06-18T01:09:06.770Z,15.04
2018-06-18T01:10:06.690Z,14.97
2018-06-18T01:11:06.648Z,15.09
2018-06-18T01:12:06.599Z,14.99
2018-06-18T01:13:06.584Z,15.02
2018-06-18T01:14:06.510Z,15.02
2018-06-18T01:15:06.464Z,15.00
2018-06-18T01:16:06.414Z,14.97
2018-06-18T01:17:06.401Z,14.97
2018-06-18T01:18:06.323Z,14.92
2018-06-18T01:19:06.310Z,14.97
2018-06-18T01:20:06.231Z,14.94
2018-06-18T01:21:06.192Z,14.84
2018-06-18T01:22:06.139Z,14.97
2018-06-18T01:23:06.091Z,15.04
2018-06-18T01:24:06.079Z,14.85
2018-06-18T01:25:05.999Z,14.88
2018-06-18T01:26:05.953Z,14.86
2018-06-18T01:27:05.908Z,14.85
2018-06-18T01:28:05.862Z,14.85
2018-06-18T01:29:05.864Z,14.85
2018-06-18T01:30:05.769Z,14.69
2018-06-18T01:31:05.720Z,14.66
2018-06-18T01:32:05.675Z,14.54
2018-06-18T01:33:05.629Z,14.41
2018-06-18T01:34:05.621Z,14.58
2018-06-18T01:35:05.534Z,14.48
2018-06-18T01:36:05.490Z,14.54
2018-06-18T01:37:05.442Z,14.53
2018-06-18T01:38:05.400Z,14.53
2018-06-18T01:39:05.390Z,14.62
2018-06-18T01:40:05.348Z,14.63
2018-06-18T01:41:05.259Z,14.63
2018-06-18T01:42:05.210Z,14.66
2018-06-18T01:43:05.165Z,14.58
2018-06-18T01:44:05.118Z,14.55
2018-06-18T01:45:05.105Z,14.62
2018-06-18T01:46:05.026Z,14.63
2018-06-18T01:47:04.981Z,14.58
2018-06-18T01:48:04.933Z,14.53
2018-06-18T01:49:04.889Z,14.54
2018-06-18T01:50:04.872Z,14.50
2018-06-18T01:51:04.793Z,14.41
2018-06-18T01:52:04.748Z,14.32
2018-06-18T01:53:04.732Z,14.20
2018-06-18T01:54:04.654Z,14.11
2018-06-18T01:55:04.606Z,14.07
2018-06-18T01:56:04.602Z,14.08
2018-06-18T01:57:04.564Z,13.96
2018-06-18T01:58:04.471Z,13.95
2018-06-18T01:59:04.418Z,13.99
2018-06-18T02:00:04.373Z,13.93
2018-06-18T02:01:04.377Z,13.86
2018-06-18T02:02:04.283Z,13.79
2018-06-18T02:03:04.235Z,13.68
2018-06-18T02:04:04.187Z,13.60
2018-06-18T02:05:04.142Z,13.56
2018-06-18T02:06:04.125Z,13.49
2018-06-18T02:07:04.052Z,13.44
2018-06-18T02:08:04.031Z,13.37
2018-06-18T02:09:03.955Z,13.46
2018-06-18T02:10:03.906Z,13.44
2018-06-18T02:11:03.860Z,13.42
2018-06-18T02:12:03.813Z,13.37
2018-06-18T02:13:03.809Z,13.39
2018-06-18T02:14:03.720Z,13.37
2018-06-18T02:15:03.673Z,13.37
2018-06-18T02:16:03.625Z,13.31
2018-06-18T02:17:03.578Z,13.31
2018-06-18T02:18:03.572Z,13.35
2018-06-18T02:19:03.482Z,13.25
2018-06-18T02:20:03.438Z,13.22
2018-06-18T02:21:03.387Z,13.16
2018-06-18T02:22:03.342Z,13.22
2018-06-18T02:23:03.326Z,13.22
2018-06-18T02:24:03.250Z,13.20
2018-06-18T02:25:03.201Z,13.11
2018-06-18T02:26:03.156Z,13.08
2018-06-18T02:27:03.152Z,13.08
2018-06-18T02:28:03.062Z,13.12
2018-06-18T02:29:03.010Z,13.09
2018-06-18T02:30:02.965Z,13.05
2018-06-18T02:31:02.921Z,13.09
2018-06-18T02:32:02.901Z,13.03
2018-06-18T02:33:02.824Z,13.00
2018-06-18T02:34:02.785Z,13.13
2018-06-18T02:35:02.763Z,13.04
2018-06-18T02:36:02.685Z,13.20
2018-06-18T02:37:02.633Z,13.15
2018-06-18T02:38:02.586Z,13.13
2018-06-18T02:39:02.573Z,13.13
2018-06-18T02:40:02.491Z,13.12
2018-06-18T02:41:02.445Z,13.04
2018-06-18T02:42:02.429Z,13.04
2018-06-18T02:43:02.351Z,13.04
2018-06-18T02:44:02.318Z,13.11
2018-06-18T02:45:02.252Z,13.09
2018-06-18T02:46:02.211Z,13.05
2018-06-18T02:47:02.194Z,12.97
2018-06-18T02:48:02.117Z,12.97
2018-06-18T02:49:02.074Z,13.00
2018-06-18T02:50:02.020Z,12.95
2018-06-18T02:51:01.968Z,12.98
2018-06-18T02:52:01.953Z,13.09
2018-06-18T02:53:01.878Z,13.05
2018-06-18T02:54:01.826Z,13.12
2018-06-18T02:55:01.779Z,13.09
2018-06-18T02:56:01.766Z,13.16
2018-06-18T02:57:01.690Z,13.13
2018-06-18T02:58:01.670Z,13.05
2018-06-18T02:59:01.595Z,13.05
2018-06-18T03:00:01.541Z,13.05
2018-06-18T03:01:01.495Z,13.03
2018-06-18T03:02:01.490Z,13.05
2018-06-18T03:03:01.399Z,12.95
2018-06-18T03:04:01.353Z,12.95
2018-06-18T03:05:01.307Z,12.91
2018-06-18T03:06:01.258Z,12.85
2018-06-18T03:07:01.241Z,12.86
2018-06-18T03:08:01.166Z,12.85
2018-06-18T03:09:01.122Z,12.83
2018-06-18T03:10:01.069Z,12.79
2018-06-18T03:11:01.025Z,12.82
2018-06-18T03:12:01.003Z,12.80
2018-06-18T03:13:00.924Z,12.78
2018-06-18T03:14:00.877Z,12.67
2018-06-18T03:15:00.857Z,12.64
2018-06-18T03:16:00.783Z,12.68
2018-06-18T03:17:00.736Z,12.70
2018-06-18T03:18:00.685Z,12.65
2018-06-18T03:19:00.664Z,12.64
2018-06-18T03:20:00.636Z,12.50
2018-06-18T03:21:01.275Z,12.57
2018-06-18T03:22:00.515Z,12.54
2018-06-18T03:23:00.456Z,12.54
2018-06-18T03:24:00.402Z,12.64
2018-06-18T03:25:00.389Z,12.65
2018-06-18T03:26:00.305Z,12.70
2018-06-18T03:27:00.255Z,12.54
2018-06-18T03:28:00.207Z,12.58
2018-06-18T03:29:00.160Z,12.45
2018-06-18T03:30:00.148Z,12.50
2018-06-18T03:31:00.100Z,12.50
2018-06-18T03:32:00.021Z,12.53
2018-06-18T03:32:59.967Z,12.46
2018-06-18T03:33:59.919Z,12.54
2018-06-18T03:34:59.871Z,12.54
2018-06-18T03:35:59.855Z,12.67
2018-06-18T03:36:59.777Z,12.65
2018-06-18T03:37:59.730Z,12.62
2018-06-18T03:38:59.711Z,12.70
2018-06-18T03:39:59.671Z,12.64
2018-06-18T03:40:59.586Z,12.64
2018-06-18T03:41:59.539Z,12.76
2018-06-18T03:42:59.521Z,12.67
2018-06-18T03:43:59.441Z,12.50
2018-06-18T03:44:59.394Z,12.39
2018-06-18T03:45:59.346Z,12.43
2018-06-18T03:46:59.298Z,12.36
2018-06-18T03:47:59.291Z,12.29
2018-06-18T03:48:59.201Z,12.28
2018-06-18T03:49:59.153Z,12.35
2018-06-18T03:50:59.106Z,12.21
2018-06-18T03:51:59.057Z,12.32
2018-06-18T03:52:59.041Z,12.32
2018-06-18T03:53:58.964Z,12.37
2018-06-18T03:54:58.914Z,12.47
2018-06-18T03:55:58.867Z,12.47
2018-06-18T03:56:58.819Z,12.43
2018-06-18T03:57:58.806Z,12.47
2018-06-18T03:58:58.721Z,12.43
2018-06-18T03:59:58.675Z,12.40
2018-06-18T04:00:58.626Z,12.37
2018-06-18T04:01:58.611Z,12.35
2018-06-18T04:02:58.560Z,12.31
2018-06-18T04:03:58.513Z,12.22
2018-06-18T04:04:58.438Z,12.18
2018-06-18T04:05:58.418Z,12.20
2018-06-18T04:06:58.339Z,12.13
2018-06-18T04:07:58.289Z,12.20
2018-06-18T04:08:58.240Z,12.18
2018-06-18T04:09:58.193Z,12.15
2018-06-18T04:10:58.192Z,12.18
2018-06-18T04:11:58.095Z,12.21
2018-06-18T04:12:58.050Z,12.22
2018-06-18T04:13:58.000Z,12.28
2018-06-18T04:14:57.950Z,12.29
2018-06-18T04:15:57.933Z,12.39
2018-06-18T04:16:57.894Z,12.32
2018-06-18T04:17:57.806Z,12.39
2018-06-18T04:18:57.757Z,12.39
2018-06-18T04:19:57.707Z,12.50
2018-06-18T04:20:57.694Z,12.45
2018-06-18T04:21:57.647Z,12.50
2018-06-18T04:22:57.562Z,12.47
2018-06-18T04:23:57.515Z,12.65
2018-06-18T04:24:57.470Z,12.65
2018-06-18T04:25:57.451Z,12.67
2018-06-18T04:26:57.368Z,12.61
2018-06-18T04:27:57.323Z,12.62
2018-06-18T04:28:57.307Z,12.76
2018-06-18T04:29:57.228Z,12.73
2018-06-18T04:30:57.189Z,12.80
2018-06-18T04:31:57.131Z,12.80
2018-06-18T04:32:57.080Z,12.73
2018-06-18T04:33:57.059Z,12.65
2018-06-18T04:34:57.023Z,12.58
2018-06-18T04:35:56.937Z,12.64
2018-06-18T04:36:56.889Z,12.67
2018-06-18T04:37:56.848Z,12.65
2018-06-18T04:38:56.834Z,12.62
2018-06-18T04:39:56.747Z,12.62
2018-06-18T04:40:56.695Z,12.72
2018-06-18T04:41:56.647Z,12.70
2018-06-18T04:42:56.599Z,12.83
2018-06-18T04:43:56.582Z,12.79
2018-06-18T04:44:56.505Z,12.79
2018-06-18T04:45:56.490Z,12.80
2018-06-18T04:46:56.410Z,12.90
2018-06-18T04:47:56.359Z,12.93
2018-06-18T04:48:56.310Z,12.93
2018-06-18T04:49:56.296Z,12.98
2018-06-18T04:50:56.218Z,12.90
2018-06-18T04:51:56.167Z,12.85
2018-06-18T04:52:56.121Z,12.94
2018-06-18T04:53:56.078Z,12.95
2018-06-18T04:54:56.055Z,12.94
2018-06-18T04:55:56.022Z,12.94
2018-06-18T04:56:55.925Z,13.05
2018-06-18T04:57:55.878Z,13.01
2018-06-18T04:58:55.829Z,13.05
2018-06-18T04:59:55.783Z,13.13
2018-06-18T05:00:55.764Z,13.15
2018-06-18T05:01:55.722Z,13.15
2018-06-18T05:02:55.634Z,13.20
2018-06-18T05:03:55.592Z,13.23
2018-06-18T05:04:55.583Z,13.30
2018-06-18T05:05:55.490Z,13.33
2018-06-18T05:06:55.445Z,13.50
2018-06-18T05:07:55.398Z,13.44
2018-06-18T05:08:55.362Z,13.50
2018-06-18T05:09:55.332Z,13.54
2018-06-18T05:10:55.251Z,13.53
2018-06-18T05:11:55.202Z,13.56
2018-06-18T05:12:55.192Z,13.54
2018-06-18T05:13:55.140Z,13.74
2018-06-18T05:14:55.059Z,13.68
2018-06-18T05:15:55.045Z,13.79
2018-06-18T05:16:54.967Z,13.77
2018-06-18T05:17:54.922Z,13.83
2018-06-18T05:18:54.868Z,13.83
2018-06-18T05:19:54.820Z,13.81
2018-06-18T05:20:54.806Z,13.96
2018-06-18T05:21:54.724Z,13.99
2018-06-18T05:22:54.679Z,14.05
2018-06-18T05:23:54.627Z,14.20
2018-06-18T05:24:54.581Z,14.26
2018-06-18T05:25:54.586Z,14.37
2018-06-18T05:26:54.490Z,14.40
2018-06-18T05:27:54.439Z,14.51
2018-06-18T05:28:54.395Z,14.59
2018-06-18T05:29:54.345Z,14.58
2018-06-18T05:30:54.334Z,14.65
2018-06-18T05:31:54.252Z,14.84
2018-06-18T05:32:54.234Z,14.84
2018-06-18T05:33:54.156Z,14.79
2018-06-18T05:34:54.107Z,14.85
2018-06-18T05:35:54.104Z,14.89
2018-06-18T05:36:54.012Z,14.85
2018-06-18T05:37:53.998Z,14.88
2018-06-18T05:38:53.926Z,14.89
2018-06-18T05:39:53.915Z,14.97
2018-06-18T05:40:53.828Z,15.02
2018-06-18T05:41:53.780Z,15.00
2018-06-18T05:42:53.735Z,14.99
2018-06-18T05:43:53.684Z,15.00
2018-06-18T05:44:53.678Z,15.02
2018-06-18T05:45:53.591Z,15.07
2018-06-18T05:46:53.546Z,15.07
2018-06-18T05:47:53.495Z,15.06
2018-06-18T05:48:53.447Z,15.07
2018-06-18T05:49:53.436Z,15.09
2018-06-18T05:50:53.356Z,15.02
2018-06-18T05:51:53.307Z,15.17
2018-06-18T05:52:53.264Z,15.15
2018-06-18T05:53:53.241Z,15.07
2018-06-18T05:54:53.167Z,15.07
2018-06-18T05:55:53.153Z,15.07
2018-06-18T05:56:53.074Z,15.02
2018-06-18T05:57:53.028Z,15.02
2018-06-18T05:58:53.014Z,15.10
2018-06-18T05:59:52.935Z,15.21
2018-06-18T06:00:52.889Z,15.19
2018-06-18T06:01:52.845Z,15.06
2018-06-18T06:02:52.796Z,15.14
2018-06-18T06:03:52.778Z,15.15
2018-06-18T06:04:52.701Z,15.11
2018-06-18T06:05:52.654Z,15.15
2018-06-18T06:06:52.637Z,15.11
2018-06-18T06:07:52.564Z,15.24
2018-06-18T06:08:52.515Z,15.24
2018-06-18T06:09:52.466Z,15.35
2018-06-18T06:10:52.454Z,15.36
2018-06-18T06:11:52.375Z,15.49
2018-06-18T06:12:52.361Z,15.47
2018-06-18T06:13:52.314Z,15.54
2018-06-18T06:14:52.241Z,15.59
2018-06-18T06:15:52.188Z,15.62
2018-06-18T06:16:52.181Z,15.70
2018-06-18T06:17:52.093Z,15.73
2018-06-18T06:18:52.081Z,15.73
2018-06-18T06:19:52.005Z,15.73
2018-06-18T06:20:51.955Z,15.77
2018-06-18T06:21:51.910Z,15.80
2018-06-18T06:22:51.895Z,15.82
2018-06-18T06:23:51.815Z,15.77
2018-06-18T06:24:51.806Z,15.79
2018-06-18T06:25:51.722Z,15.94
2018-06-18T06:26:51.674Z,16.00
2018-06-18T06:27:51.628Z,16.04
2018-06-18T06:28:51.620Z,16.16
2018-06-18T06:29:51.542Z,16.23
2018-06-18T06:30:51.494Z,16.20
2018-06-18T06:31:51.454Z,16.39
2018-06-18T06:32:51.403Z,16.41
2018-06-18T06:33:51.384Z,16.50
2018-06-18T06:34:51.306Z,16.56
2018-06-18T06:35:51.269Z,16.68
2018-06-18T06:36:51.214Z,16.76
2018-06-18T06:37:51.205Z,16.90
2018-06-18T06:38:51.162Z,16.89
2018-06-18T06:39:51.082Z,17.05
2018-06-18T06:40:51.034Z,16.97
2018-06-18T06:41:50.988Z,17.09
2018-06-18T06:42:50.939Z,17.19
2018-06-18T06:43:50.940Z,17.19
2018-06-18T06:44:50.849Z,17.26
2018-06-18T06:45:50.803Z,17.30
2018-06-18T06:46:50.756Z,17.26
2018-06-18T06:47:50.724Z,17.41
2018-06-18T06:48:50.762Z,17.49
2018-06-18T06:49:50.659Z,17.54
2018-06-18T06:50:50.578Z,17.64
2018-06-18T06:51:50.532Z,17.68
2018-06-18T06:52:50.497Z,17.70
2018-06-18T06:53:50.441Z,17.76
2018-06-18T06:54:50.434Z,17.87
2018-06-18T06:55:50.355Z,17.85
2018-06-18T06:56:50.306Z,18.10
2018-06-18T06:57:50.265Z,18.04
2018-06-18T06:58:50.214Z,18.08
2018-06-18T06:59:50.213Z,18.10
2018-06-18T07:00:50.128Z,18.03
2018-06-18T07:01:50.084Z,18.10
2018-06-18T07:02:50.039Z,18.22
2018-06-18T07:03:49.991Z,18.25
2018-06-18T07:04:50.458Z,18.07
2018-06-18T07:05:51.287Z,18.01
2018-06-18T07:06:49.930Z,17.87
2018-06-18T07:07:49.814Z,17.92
2018-06-18T07:08:49.768Z,17.85
2018-06-18T07:09:49.725Z,17.76
2018-06-18T07:10:49.678Z,17.76
2018-06-18T07:11:49.674Z,17.78
2018-06-18T07:12:49.589Z,17.80
2018-06-18T07:13:49.585Z,17.80
2018-06-18T07:14:49.499Z,17.79
2018-06-18T07:15:49.455Z,17.89
2018-06-18T07:16:49.454Z,17.90
2018-06-18T07:17:49.366Z,17.97
2018-06-18T07:18:49.324Z,18.03
2018-06-18T07:19:49.314Z,18.05
2018-06-18T07:20:49.232Z,18.03
2018-06-18T07:21:49.232Z,18.18
2018-06-18T07:22:49.189Z,18.18
2018-06-18T07:23:49.131Z,18.18
2018-06-18T07:24:49.060Z,18.25
2018-06-18T07:25:49.011Z,18.05
2018-06-18T07:26:49.073Z,18.00
2018-06-18T07:27:48.921Z,18.20
2018-06-18T07:28:48.885Z,18.08
2018-06-18T07:29:48.833Z,18.03
2018-06-18T07:30:48.793Z,18.03
2018-06-18T07:31:48.785Z,17.98
2018-06-18T07:32:48.702Z,18.00
2018-06-18T07:33:48.656Z,17.98
2018-06-18T07:34:48.613Z,18.11
2018-06-18T07:35:48.568Z,18.03
2018-06-18T07:36:48.567Z,18.11
2018-06-18T07:37:48.482Z,18.22
2018-06-18T07:38:48.434Z,18.20
2018-06-18T07:39:48.391Z,18.33
2018-06-18T07:40:48.346Z,18.20
2018-06-18T07:41:48.346Z,18.20
2018-06-18T07:42:48.260Z,18.34
2018-06-18T07:43:48.257Z,18.38
2018-06-18T07:44:48.172Z,18.43
2018-06-18T07:45:48.130Z,18.56
2018-06-18T07:46:48.083Z,18.60
2018-06-18T07:47:48.040Z,18.59
2018-06-18T07:48:48.034Z,18.77
2018-06-18T07:49:47.951Z,18.75
2018-06-18T07:50:47.906Z,18.84
2018-06-18T07:51:47.997Z,18.81
2018-06-18T07:52:47.821Z,18.95
2018-06-18T07:53:47.819Z,19.00
2018-06-18T07:54:47.730Z,19.15
2018-06-18T07:55:47.689Z,19.16
2018-06-18T07:56:47.643Z,19.16
2018-06-18T07:57:47.601Z,19.27
2018-06-18T07:58:47.600Z,19.26
2018-06-18T07:59:47.512Z,19.30
2018-06-18T08:00:47.468Z,19.29
2018-06-18T08:01:47.431Z,19.29
2018-06-18T08:02:47.382Z,19.31
2018-06-18T08:03:47.377Z,19.36
2018-06-18T08:04:47.295Z,19.36
2018-06-18T08:05:47.251Z,19.52
2018-06-18T08:06:47.208Z,19.66
2018-06-18T08:07:47.169Z,19.70
2018-06-18T08:08:47.175Z,19.63
2018-06-18T08:09:47.084Z,19.27
2018-06-18T08:10:47.048Z,19.29
2018-06-18T08:11:46.992Z,19.24
2018-06-18T08:12:46.953Z,19.33
2018-06-18T08:13:46.938Z,19.45
2018-06-18T08:14:46.865Z,19.51
2018-06-18T08:15:46.821Z,19.64
2018-06-18T08:16:46.778Z,19.62
2018-06-18T08:17:46.772Z,19.27
2018-06-18T08:18:46.693Z,19.11
2018-06-18T08:19:46.647Z,19.15
2018-06-18T08:20:46.604Z,19.29
2018-06-18T08:21:46.561Z,19.33
2018-06-18T08:22:46.549Z,19.26
2018-06-18T08:23:46.558Z,19.39
2018-06-18T08:24:46.442Z,19.56
2018-06-18T08:25:46.394Z,19.62
2018-06-18T08:26:46.346Z,19.56
2018-06-18T08:27:46.311Z,19.59
2018-06-18T08:28:46.297Z,19.63
2018-06-18T08:29:46.216Z,19.63
2018-06-18T08:30:46.175Z,19.79
2018-06-18T08:31:46.144Z,19.81
2018-06-18T08:32:46.125Z,19.84
2018-06-18T08:33:46.051Z,19.89
2018-06-18T08:34:46.040Z,20.03
2018-06-18T08:35:45.962Z,20.09
2018-06-18T08:36:45.917Z,20.19
2018-06-18T08:37:45.905Z,20.13
2018-06-18T08:38:45.830Z,20.22
2018-06-18T08:39:45.796Z,20.28
2018-06-18T08:40:45.777Z,20.07
2018-06-18T08:41:45.703Z,20.07
2018-06-18T08:42:45.690Z,20.04
2018-06-18T08:43:45.618Z,20.11
2018-06-18T08:44:45.577Z,20.22
2018-06-18T08:45:45.575Z,20.36
2018-06-18T08:46:45.521Z,20.51
2018-06-18T08:47:45.492Z,20.70
2018-06-18T08:48:45.405Z,20.81
2018-06-18T08:49:45.364Z,20.74
2018-06-18T08:50:45.341Z,20.65
2018-06-18T08:51:45.280Z,20.70
2018-06-18T08:52:45.268Z,20.81
2018-06-18T08:53:45.194Z,20.95
2018-06-18T08:54:45.151Z,20.95
2018-06-18T08:55:45.107Z,21.06
2018-06-18T08:56:45.069Z,21.06
2018-06-18T08:57:45.114Z,21.07
2018-06-18T08:58:44.983Z,21.17
2018-06-18T08:59:44.982Z,21.20
2018-06-18T09:00:44.897Z,21.02
2018-06-18T09:01:44.859Z,20.90
2018-06-18T09:02:44.814Z,20.95
2018-06-18T09:03:44.774Z,20.92
2018-06-18T09:04:44.815Z,20.82
2018-06-18T09:05:44.690Z,20.85
2018-06-18T09:06:44.648Z,21.11
2018-06-18T09:07:44.606Z,21.20
2018-06-18T09:08:44.562Z,21.35
2018-06-18T09:09:44.554Z,21.51
2018-06-18T09:10:44.479Z,21.69
2018-06-18T09:11:44.471Z,21.80
2018-06-18T09:12:44.397Z,21.96
2018-06-18T09:13:44.355Z,21.93
2018-06-18T09:14:44.311Z,21.83
2018-06-18T09:15:44.273Z,21.79
2018-06-18T09:16:44.261Z,21.77
2018-06-18T09:17:44.189Z,21.70
2018-06-18T09:18:44.147Z,21.40
2018-06-18T09:19:44.104Z,21.29
2018-06-18T09:20:44.096Z,21.18
2018-06-18T09:21:44.031Z,21.12
2018-06-18T09:22:43.982Z,21.20
2018-06-18T09:23:43.997Z,21.30
2018-06-18T09:24:43.898Z,21.35
2018-06-18T09:25:43.896Z,21.37
2018-06-18T09:26:43.814Z,21.33
2018-06-18T09:27:43.774Z,21.36
2018-06-18T09:28:43.734Z,21.43
2018-06-18T09:29:43.696Z,21.37
2018-06-18T09:30:43.682Z,21.12
2018-06-18T09:31:43.612Z,20.88
2018-06-18T09:32:43.661Z,20.88
2018-06-18T09:33:43.526Z,20.95
2018-06-18T09:34:43.527Z,21.03
2018-06-18T09:35:43.457Z,20.87
2018-06-18T09:36:43.402Z,20.84
2018-06-18T09:37:43.365Z,20.60
2018-06-18T09:38:43.316Z,20.41
2018-06-18T09:39:43.337Z,20.39
2018-06-18T09:40:43.237Z,20.32
2018-06-18T09:41:43.200Z,20.36
2018-06-18T09:42:43.147Z,20.48
2018-06-18T09:43:43.112Z,20.40
2018-06-18T09:44:43.109Z,20.41
2018-06-18T09:45:43.026Z,20.44
2018-06-18T09:46:42.983Z,20.44
2018-06-18T09:47:42.940Z,20.56
2018-06-18T09:48:42.901Z,20.62
2018-06-18T09:49:42.892Z,20.43
2018-06-18T09:50:42.815Z,20.25
2018-06-18T09:51:42.775Z,20.10
2018-06-18T09:52:42.754Z,20.28
2018-06-18T09:53:42.691Z,20.34
2018-06-18T09:54:42.650Z,20.40
2018-06-18T09:55:42.665Z,20.36
2018-06-18T09:56:42.566Z,20.43
2018-06-18T09:57:42.554Z,20.47
2018-06-18T09:58:42.482Z,20.56
2018-06-18T09:59:42.439Z,20.62
2018-06-18T10:00:42.399Z,20.62
2018-06-18T10:01:42.400Z,20.74
2018-06-18T10:02:42.355Z,20.97
2018-06-18T10:03:42.272Z,21.36
2018-06-18T10:04:42.235Z,21.62
2018-06-18T10:05:42.186Z,22.02
2018-06-18T10:06:42.145Z,22.20
2018-06-18T10:07:42.140Z,22.10
2018-06-18T10:08:42.156Z,22.02
2018-06-18T10:09:42.056Z,21.89
2018-06-18T10:10:42.017Z,21.57
2018-06-18T10:11:41.938Z,21.45
2018-06-18T10:12:41.897Z,21.39
2018-06-18T10:13:41.855Z,21.42
2018-06-18T10:14:41.843Z,21.33
2018-06-18T10:15:41.771Z,21.22
2018-06-18T10:16:41.734Z,21.18
2018-06-18T10:17:41.688Z,21.27
2018-06-18T10:18:41.682Z,21.21
2018-06-18T10:19:41.640Z,21.17
2018-06-18T10:20:41.568Z,21.12
2018-06-18T10:21:41.523Z,21.09
2018-06-18T10:22:41.483Z,21.20
2018-06-18T10:23:41.439Z,21.17
2018-06-18T10:24:41.438Z,21.29
2018-06-18T10:25:41.357Z,21.33
2018-06-18T10:26:41.314Z,21.39
2018-06-18T10:27:41.281Z,21.42
2018-06-18T10:28:41.232Z,21.54
2018-06-18T10:29:41.222Z,21.45
2018-06-18T10:30:41.180Z,21.45
2018-06-18T10:31:41.109Z,21.57
2018-06-18T10:32:41.067Z,21.69
2018-06-18T10:33:41.023Z,21.76
2018-06-18T10:34:40.980Z,21.93
2018-06-18T10:35:40.980Z,21.99
2018-06-18T10:36:40.900Z,21.98
2018-06-18T10:37:40.857Z,21.91
2018-06-18T10:38:40.818Z,21.83
2018-06-18T10:39:40.776Z,21.67
2018-06-18T10:40:40.766Z,21.69
2018-06-18T10:41:40.727Z,21.70
2018-06-18T10:42:40.650Z,21.76
2018-06-18T10:43:40.608Z,21.82
2018-06-18T10:44:40.576Z,21.82
2018-06-18T10:45:40.526Z,22.02
2018-06-18T10:46:40.518Z,22.06
2018-06-18T10:47:40.444Z,22.04
2018-06-18T10:48:40.402Z,22.29
2018-06-18T10:49:40.370Z,22.43
2018-06-18T10:50:40.324Z,22.36
2018-06-18T10:51:40.312Z,22.44
2018-06-18T10:52:40.271Z,22.39
2018-06-18T10:53:40.199Z,22.30
2018-06-18T10:54:40.155Z,22.35
2018-06-18T10:55:40.115Z,22.54
2018-06-18T10:56:40.077Z,22.68
2018-06-18T10:57:40.068Z,22.81
2018-06-18T10:58:40.023Z,22.72
2018-06-18T10:59:39.981Z,22.65
2018-06-18T11:00:39.911Z,22.68
2018-06-18T11:01:39.873Z,22.57
2018-06-18T11:02:39.836Z,22.54
2018-06-18T11:03:39.795Z,22.57
2018-06-18T11:04:39.778Z,22.70
2018-06-18T11:05:39.706Z,22.73
2018-06-18T11:06:39.696Z,22.83
2018-06-18T11:07:39.624Z,22.85
2018-06-18T11:08:39.582Z,22.69
2018-06-18T11:09:39.541Z,22.69
2018-06-18T11:10:39.501Z,22.80
2018-06-18T11:11:39.493Z,22.63
2018-06-18T11:12:39.419Z,22.66
2018-06-18T11:13:39.380Z,22.54
2018-06-18T11:14:39.340Z,22.78
2018-06-18T11:15:39.298Z,22.70
2018-06-18T11:16:39.440Z,22.55
2018-06-18T11:17:39.215Z,22.48
2018-06-18T11:18:39.177Z,22.51
2018-06-18T11:19:39.173Z,22.62
2018-06-18T11:20:39.101Z,22.68
2018-06-18T11:21:39.055Z,22.65
2018-06-18T11:22:39.018Z,22.68
2018-06-18T11:23:38.972Z,22.81
2018-06-18T11:24:38.963Z,22.78
2018-06-18T11:25:38.892Z,22.66
2018-06-18T11:26:38.886Z,22.68
2018-06-18T11:27:38.811Z,22.78
2018-06-18T11:28:38.781Z,22.93
2018-06-18T11:29:38.775Z,22.88
2018-06-18T11:30:38.690Z,22.85
2018-06-18T11:31:38.648Z,22.98
2018-06-18T11:32:38.715Z,23.05
2018-06-18T11:33:38.567Z,23.10
2018-06-18T11:34:38.563Z,23.17
2018-06-18T11:35:38.548Z,22.99
2018-06-18T11:36:38.449Z,22.84
2018-06-18T11:37:38.418Z,22.69
2018-06-18T11:38:38.364Z,22.63
2018-06-18T11:39:38.358Z,22.69
2018-06-18T11:40:38.336Z,22.75
2018-06-18T11:41:38.276Z,22.76
2018-06-18T11:42:38.201Z,22.68
2018-06-18T11:43:38.175Z,22.76
2018-06-18T11:44:38.155Z,22.83
2018-06-18T11:45:38.082Z,22.83
2018-06-18T11:46:38.041Z,22.88
2018-06-18T11:47:38.003Z,23.00
2018-06-18T11:48:37.962Z,23.06
2018-06-18T11:49:37.954Z,23.15
2018-06-18T11:50:37.881Z,23.27
2018-06-18T11:51:37.837Z,23.48
2018-06-18T11:52:37.909Z,23.65
2018-06-18T11:53:37.759Z,23.58
2018-06-18T11:54:37.716Z,23.62
2018-06-18T11:55:37.679Z,23.91
2018-06-18T11:56:37.671Z,24.08
2018-06-18T11:57:37.640Z,24.13
2018-06-18T11:58:37.556Z,24.21
2018-06-18T11:59:37.517Z,24.13
2018-06-18T12:00:37.480Z,23.92
2018-06-18T12:01:37.439Z,23.88
2018-06-18T12:02:37.429Z,23.83
2018-06-18T12:03:37.364Z,23.71
2018-06-18T12:04:37.317Z,23.73
2018-06-18T12:05:37.315Z,23.59
2018-06-18T12:06:37.235Z,23.39
2018-06-18T12:07:37.198Z,23.31
2018-06-18T12:08:37.156Z,23.31
2018-06-18T12:09:37.133Z,23.21
2018-06-18T12:10:37.107Z,23.24
2018-06-18T12:11:37.075Z,23.34
2018-06-18T12:12:36.999Z,23.44
2018-06-18T12:13:36.960Z,23.58
2018-06-18T12:14:36.921Z,23.50
2018-06-18T12:15:36.886Z,23.47
2018-06-18T12:16:36.875Z,23.47
2018-06-18T12:17:36.797Z,23.46
2018-06-18T12:18:36.757Z,23.44
2018-06-18T12:19:36.717Z,23.40
2018-06-18T12:20:36.679Z,23.48
2018-06-18T12:21:36.670Z,23.44
2018-06-18T12:22:36.629Z,23.56
2018-06-18T12:23:36.556Z,23.51
2018-06-18T12:24:36.514Z,23.37
2018-06-18T12:25:36.474Z,23.21
2018-06-18T12:26:36.439Z,23.25
2018-06-18T12:27:36.436Z,23.13
2018-06-18T12:28:36.358Z,22.93
2018-06-18T12:29:36.315Z,22.76
2018-06-18T12:30:36.276Z,22.59
2018-06-18T12:31:36.240Z,22.57
2018-06-18T12:32:36.232Z,22.53
2018-06-18T12:33:36.187Z,22.36
2018-06-18T12:34:36.113Z,22.25
2018-06-18T12:35:36.074Z,22.29
2018-06-18T12:36:36.072Z,22.36
2018-06-18T12:37:35.990Z,22.53
2018-06-18T12:38:35.953Z,22.55
2018-06-18T12:39:35.913Z,22.43
2018-06-18T12:40:35.871Z,22.41
2018-06-18T12:41:35.863Z,22.43
2018-06-18T12:42:35.796Z,22.50
2018-06-18T12:43:35.751Z,22.57
2018-06-18T12:44:35.706Z,22.63
2018-06-18T12:45:35.701Z,22.59
2018-06-18T12:46:35.641Z,22.60
2018-06-18T12:47:35.588Z,22.66
2018-06-18T12:48:35.581Z,22.75
2018-06-18T12:49:35.504Z,22.75
2018-06-18T12:50:35.516Z,22.83
2018-06-18T12:51:35.422Z,22.85